sensor_id;sensor_type;location;lat;lon;timestamp;pressure;altitude;pressure_sealevel;temperature;humidity
55070;BME280;40967;52.070;8.596;2023-12-20T00:00:00;100200.69;;;6.62;100.00
55070;BME280;40967;52.070;8.596;2023-12-20T00:02:30;100192.84;;;6.61;100.00
55070;BME280;40967;52.070;8.596;2023-12-20T00:05:00;100200.31;;;6.54;100.00
55070;BME280;40967;52.070;8.596;2023-12-20T00:07:27;100207.09;;;6.56;100.00
55070;BME280;40967;52.070;8.596;2023-12-20T00:09:57;100201.31;;;6.48;100.00
55070;BME280;40967;52.070;8.596;2023-12-20T00:12:26;100202.38;;;6.47;100.00
55070;BME280;40967;52.070;8.596;2023-12-20T00:14:53;100209.63;;;6.46;100.00
55070;BME280;40967;52.070;8.596;2023-12-20T00:17:20;100191.16;;;6.33;100.00
55070;BME280;40967;52.070;8.596;2023-12-20T00:19:53;100205.56;;;6.44;100.00
55070;BME280;40967;52.070;8.596;2023-12-20T00:22:23;100222.88;;;6.48;100.00
55070;BME280;40967;52.070;8.596;2023-12-20T00:24:50;100225.81;;;6.46;100.00
55070;BME280;40967;52.070;8.596;2023-12-20T00:27:17;100228.75;;;6.45;100.00
55070;BME280;40967;52.070;8.596;2023-12-20T00:29:48;100230.06;;;6.42;100.00
55070;BME280;40967;52.070;8.596;2023-12-20T00:32:16;100245.69;;;6.40;100.00
55070;BME280;40967;52.070;8.596;2023-12-20T00:34:43;100240.16;;;6.30;100.00
55070;BME280;40967;52.070;8.596;2023-12-20T00:37:11;100238.50;;;6.29;100.00
55070;BME280;40967;52.070;8.596;2023-12-20T00:39:41;100231.69;;;6.22;100.00
55070;BME280;40967;52.070;8.596;2023-12-20T00:42:11;100229.00;;;6.22;100.00
55070;BME280;40967;52.070;8.596;2023-12-20T00:44:40;100208.34;;;6.11;100.00
55070;BME280;40967;52.070;8.596;2023-12-20T00:47:11;100233.22;;;6.18;100.00
55070;BME280;40967;52.070;8.596;2023-12-20T00:49:38;100228.34;;;6.15;100.00
55070;BME280;40967;52.070;8.596;2023-12-20T00:52:05;100228.09;;;6.16;100.00
55070;BME280;40967;52.070;8.596;2023-12-20T00:54:32;100231.28;;;6.13;100.00
55070;BME280;40967;52.070;8.596;2023-12-20T00:57:00;100233.88;;;6.08;100.00
55070;BME280;40967;52.070;8.596;2023-12-20T00:59:29;100238.72;;;6.06;100.00
55070;BME280;40967;52.070;8.596;2023-12-20T01:01:56;100240.84;;;6.04;100.00
55070;BME280;40967;52.070;8.596;2023-12-20T01:04:25;100235.47;;;6.04;100.00
55070;BME280;40967;52.070;8.596;2023-12-20T01:06:53;100239.69;;;6.00;100.00
55070;BME280;40967;52.070;8.596;2023-12-20T01:09:20;100237.00;;;6.00;100.00
55070;BME280;40967;52.070;8.596;2023-12-20T01:11:53;100239.69;;;6.00;100.00
55070;BME280;40967;52.070;8.596;2023-12-20T01:14:20;100238.34;;;5.98;100.00
55070;BME280;40967;52.070;8.596;2023-12-20T01:16:50;100245.34;;;5.99;100.00
55070;BME280;40967;52.070;8.596;2023-12-20T01:19:17;100248.59;;;6.01;100.00
55070;BME280;40967;52.070;8.596;2023-12-20T01:21:48;100242.16;;;6.02;100.00
55070;BME280;40967;52.070;8.596;2023-12-20T01:24:18;100246.72;;;6.01;100.00
55070;BME280;40967;52.070;8.596;2023-12-20T01:26:47;100246.16;;;5.99;100.00
55070;BME280;40967;52.070;8.596;2023-12-20T01:29:15;100247.22;;;5.98;100.00
55070;BME280;40967;52.070;8.596;2023-12-20T01:31:42;100252.00;;;5.96;100.00
55070;BME280;40967;52.070;8.596;2023-12-20T01:34:09;100248.28;;;5.97;100.00
55070;BME280;40967;52.070;8.596;2023-12-20T01:36:36;100252.59;;;5.98;100.00
55070;BME280;40967;52.070;8.596;2023-12-20T01:39:04;100256.94;;;5.99;100.00
55070;BME280;40967;52.070;8.596;2023-12-20T01:41:33;100249.81;;;5.93;100.00
55070;BME280;40967;52.070;8.596;2023-12-20T01:44:13;100249.41;;;5.85;100.00
55070;BME280;40967;52.070;8.596;2023-12-20T01:46:42;100240.16;;;5.80;100.00
55070;BME280;40967;52.070;8.596;2023-12-20T01:49:10;100259.22;;;5.91;100.00
55070;BME280;40967;52.070;8.596;2023-12-20T01:51:38;100269.50;;;5.94;100.00
55070;BME280;40967;52.070;8.596;2023-12-20T01:54:07;100254.38;;;5.93;100.00
55070;BME280;40967;52.070;8.596;2023-12-20T01:56:34;100226.63;;;5.75;100.00
55070;BME280;40967;52.070;8.596;2023-12-20T01:59:02;100258.16;;;5.92;100.00
55070;BME280;40967;52.070;8.596;2023-12-20T02:01:30;100243.69;;;5.81;100.00
55070;BME280;40967;52.070;8.596;2023-12-20T02:03:59;100248.00;;;5.82;100.00
55070;BME280;40967;52.070;8.596;2023-12-20T02:06:30;100241.72;;;5.76;100.00
55070;BME280;40967;52.070;8.596;2023-12-20T02:09:00;100230.63;;;5.73;100.00
55070;BME280;40967;52.070;8.596;2023-12-20T02:11:32;100238.47;;;5.74;100.00
55070;BME280;40967;52.070;8.596;2023-12-20T02:14:01;100239.44;;;5.68;100.00
55070;BME280;40967;52.070;8.596;2023-12-20T02:16:28;100232.34;;;5.62;100.00
55070;BME280;40967;52.070;8.596;2023-12-20T02:18:57;100214.38;;;5.51;100.00
55070;BME280;40967;52.070;8.596;2023-12-20T02:21:31;100220.50;;;5.63;100.00
55070;BME280;40967;52.070;8.596;2023-12-20T02:24:00;100221.84;;;5.61;100.00
55070;BME280;40967;52.070;8.596;2023-12-20T02:26:27;100220.75;;;5.62;100.00
55070;BME280;40967;52.070;8.596;2023-12-20T02:28:54;100219.94;;;5.61;100.00
55070;BME280;40967;52.070;8.596;2023-12-20T02:31:21;100232.91;;;5.64;100.00
55070;BME280;40967;52.070;8.596;2023-12-20T02:33:49;100234.53;;;5.65;100.00
55070;BME280;40967;52.070;8.596;2023-12-20T02:36:16;100231.84;;;5.65;100.00
55070;BME280;40967;52.070;8.596;2023-12-20T02:38:44;100234.53;;;5.65;100.00
55070;BME280;40967;52.070;8.596;2023-12-20T02:41:12;100231.53;;;5.62;100.00
55070;BME280;40967;52.070;8.596;2023-12-20T02:43:45;100231.19;;;5.58;100.00
55070;BME280;40967;52.070;8.596;2023-12-20T02:46:14;100226.38;;;5.60;100.00
55070;BME280;40967;52.070;8.596;2023-12-20T02:48:42;100219.34;;;5.59;100.00
55070;BME280;40967;52.070;8.596;2023-12-20T02:51:09;100232.81;;;5.59;100.00
55070;BME280;40967;52.070;8.596;2023-12-20T02:53:36;100212.03;;;5.55;100.00
55070;BME280;40967;52.070;8.596;2023-12-20T02:56:07;100209.34;;;5.55;100.00
55070;BME280;40967;52.070;8.596;2023-12-20T02:58:35;100213.50;;;5.62;100.00
55070;BME280;40967;52.070;8.596;2023-12-20T03:01:11;100213.50;;;5.62;100.00
55070;BME280;40967;52.070;8.596;2023-12-20T03:03:42;100206.00;;;5.64;100.00
55070;BME280;40967;52.070;8.596;2023-12-20T03:06:08;100216.19;;;5.62;100.00
55070;BME280;40967;52.070;8.596;2023-12-20T03:08:35;100213.25;;;5.64;100.00
55070;BME280;40967;52.070;8.596;2023-12-20T03:11:09;100220.84;;;5.67;100.00
55070;BME280;40967;52.070;8.596;2023-12-20T03:13:36;100205.19;;;5.64;100.00
55070;BME280;40967;52.070;8.596;2023-12-20T03:16:08;100215.44;;;5.67;100.00
55070;BME280;40967;52.070;8.596;2023-12-20T03:18:40;100213.59;;;5.67;100.00
55070;BME280;40967;52.070;8.596;2023-12-20T03:21:07;100209.03;;;5.68;100.00
55070;BME280;40967;52.070;8.596;2023-12-20T03:23:35;100214.09;;;5.64;100.00
55070;BME280;40967;52.070;8.596;2023-12-20T03:26:08;100220.00;;;5.66;100.00
55070;BME280;40967;52.070;8.596;2023-12-20T03:28:36;100219.22;;;5.66;100.00
55070;BME280;40967;52.070;8.596;2023-12-20T03:31:04;100214.63;;;5.66;100.00
55070;BME280;40967;52.070;8.596;2023-12-20T03:33:32;100222.47;;;5.68;100.00
55070;BME280;40967;52.070;8.596;2023-12-20T03:36:04;100218.41;;;5.65;100.00
55070;BME280;40967;52.070;8.596;2023-12-20T03:38:31;100217.56;;;5.65;100.00
55070;BME280;40967;52.070;8.596;2023-12-20T03:40:59;100207.13;;;5.68;100.00
55070;BME280;40967;52.070;8.596;2023-12-20T03:43:28;100211.72;;;5.68;100.00
55070;BME280;40967;52.070;8.596;2023-12-20T03:45:54;100201.84;;;5.57;100.00
55070;BME280;40967;52.070;8.596;2023-12-20T03:48:21;100195.72;;;5.61;100.00
55070;BME280;40967;52.070;8.596;2023-12-20T03:50:50;100188.78;;;5.65;100.00
55070;BME280;40967;52.070;8.596;2023-12-20T03:53:17;100193.09;;;5.66;100.00
55070;BME280;40967;52.070;8.596;2023-12-20T03:55:44;100189.03;;;5.64;100.00
55070;BME280;40967;52.070;8.596;2023-12-20T03:58:13;100172.75;;;5.54;100.00
55070;BME280;40967;52.070;8.596;2023-12-20T04:00:42;100186.03;;;5.60;100.00
55070;BME280;40967;52.070;8.596;2023-12-20T04:03:09;100194.59;;;5.57;100.00
55070;BME280;40967;52.070;8.596;2023-12-20T04:05:39;100185.19;;;5.60;100.00
55070;BME280;40967;52.070;8.596;2023-12-20T04:08:07;100189.75;;;5.59;100.00
55070;BME280;40967;52.070;8.596;2023-12-20T04:10:36;100194.91;;;5.61;100.00
55070;BME280;40967;52.070;8.596;2023-12-20T04:13:04;100186.84;;;5.61;100.00
55070;BME280;40967;52.070;8.596;2023-12-20T04:15:33;100176.63;;;5.63;100.00
55070;BME280;40967;52.070;8.596;2023-12-20T04:18:01;100195.13;;;5.59;100.00
55070;BME280;40967;52.070;8.596;2023-12-20T04:20:30;100179.16;;;5.53;100.00
55070;BME280;40967;52.070;8.596;2023-12-20T04:22:57;100171.25;;;5.46;100.00
55070;BME280;40967;52.070;8.596;2023-12-20T04:25:24;100180.22;;;5.52;100.00
55070;BME280;40967;52.070;8.596;2023-12-20T04:27:54;100163.44;;;5.45;100.00
55070;BME280;40967;52.070;8.596;2023-12-20T04:30:31;100183.41;;;5.49;100.00
55070;BME280;40967;52.070;8.596;2023-12-20T04:32:57;100186.91;;;5.49;100.00
55070;BME280;40967;52.070;8.596;2023-12-20T04:35:27;100189.84;;;5.48;100.00
55070;BME280;40967;52.070;8.596;2023-12-20T04:37:54;100186.31;;;5.47;100.00
55070;BME280;40967;52.070;8.596;2023-12-20T04:40:21;100189.03;;;5.47;100.00
55070;BME280;40967;52.070;8.596;2023-12-20T04:42:48;100176.13;;;5.49;100.00
55070;BME280;40967;52.070;8.596;2023-12-20T04:45:15;100184.88;;;5.56;100.00
55070;BME280;40967;52.070;8.596;2023-12-20T04:47:43;100180.56;;;5.55;100.00
55070;BME280;40967;52.070;8.596;2023-12-20T04:50:12;100184.63;;;5.58;100.00
55070;BME280;40967;52.070;8.596;2023-12-20T04:52:44;100169.56;;;5.57;100.00
55070;BME280;40967;52.070;8.596;2023-12-20T04:55:11;100185.94;;;5.55;100.00
55070;BME280;40967;52.070;8.596;2023-12-20T04:57:39;100178.69;;;5.56;100.00
55070;BME280;40967;52.070;8.596;2023-12-20T05:00:10;100161.47;;;5.57;100.00
55070;BME280;40967;52.070;8.596;2023-12-20T05:02:38;100172.50;;;5.55;100.00
55070;BME280;40967;52.070;8.596;2023-12-20T05:05:08;100168.97;;;5.55;100.00
55070;BME280;40967;52.070;8.596;2023-12-20T05:07:35;100171.66;;;5.55;100.00
55070;BME280;40967;52.070;8.596;2023-12-20T05:10:07;100162.22;;;5.52;100.00
55070;BME280;40967;52.070;8.596;2023-12-20T05:12:35;100156.84;;;5.52;100.00
55070;BME280;40967;52.070;8.596;2023-12-20T05:15:10;100158.47;;;5.53;100.00
55070;BME280;40967;52.070;8.596;2023-12-20T05:17:39;100161.22;;;5.58;100.00
55070;BME280;40967;52.070;8.596;2023-12-20T05:20:07;100163.59;;;5.55;100.00
55070;BME280;40967;52.070;8.596;2023-12-20T05:22:34;100161.47;;;5.57;100.00
55070;BME280;40967;52.070;8.596;2023-12-20T05:28:20;100155.28;;;5.56;100.00
55070;BME280;40967;52.070;8.596;2023-12-20T05:30:49;100147.53;;;5.43;100.00
55070;BME280;40967;52.070;8.596;2023-12-20T05:33:15;100157.56;;;5.48;100.00
55070;BME280;40967;52.070;8.596;2023-12-20T05:35:42;100158.72;;;5.52;100.00
55070;BME280;40967;52.070;8.596;2023-12-20T05:38:09;100158.38;;;5.48;100.00
55070;BME280;40967;52.070;8.596;2023-12-20T05:40:38;100159.75;;;5.51;100.00
55070;BME280;40967;52.070;8.596;2023-12-20T05:43:05;100165.47;;;5.54;100.00
55070;BME280;40967;52.070;8.596;2023-12-20T05:45:33;100159.75;;;5.51;100.00
55070;BME280;40967;52.070;8.596;2023-12-20T05:48:00;100162.53;;;5.56;100.00
55070;BME280;40967;52.070;8.596;2023-12-20T05:50:27;100171.66;;;5.55;100.00
55070;BME280;40967;52.070;8.596;2023-12-20T05:52:54;100176.47;;;5.53;100.00
55070;BME280;40967;52.070;8.596;2023-12-20T05:55:23;100167.50;;;5.47;100.00
55070;BME280;40967;52.070;8.596;2023-12-20T05:57:50;100183.63;;;5.47;100.00
55070;BME280;40967;52.070;8.596;2023-12-20T06:00:19;100184.13;;;5.44;100.00
55070;BME280;40967;52.070;8.596;2023-12-20T06:02:47;100171.44;;;5.40;100.00
55070;BME280;40967;52.070;8.596;2023-12-20T06:05:16;100183.09;;;5.45;100.00
55070;BME280;40967;52.070;8.596;2023-12-20T06:07:43;100162.88;;;5.43;100.00
55070;BME280;40967;52.070;8.596;2023-12-20T06:10:14;100167.81;;;5.51;100.00
55070;BME280;40967;52.070;8.596;2023-12-20T06:12:46;100159.84;;;5.39;100.00
55070;BME280;40967;52.070;8.596;2023-12-20T06:15:17;100178.03;;;5.49;100.00
55070;BME280;40967;52.070;8.596;2023-12-20T06:17:48;100182.34;;;5.50;100.00
55070;BME280;40967;52.070;8.596;2023-12-20T06:20:15;100191.00;;;5.52;100.00
55070;BME280;40967;52.070;8.596;2023-12-20T06:22:45;100176.38;;;5.48;100.00
55070;BME280;40967;52.070;8.596;2023-12-20T06:25:14;100166.69;;;5.47;100.00
55070;BME280;40967;52.070;8.596;2023-12-20T06:27:41;100173.19;;;5.51;100.00
55070;BME280;40967;52.070;8.596;2023-12-20T06:30:10;100164.09;;;5.52;100.00
55070;BME280;40967;52.070;8.596;2023-12-20T06:32:36;100175.69;;;5.52;100.00
55070;BME280;40967;52.070;8.596;2023-12-20T06:35:07;100167.34;;;5.54;100.00
55070;BME280;40967;52.070;8.596;2023-12-20T06:37:36;100152.03;;;5.38;100.00
55070;BME280;40967;52.070;8.596;2023-12-20T06:40:11;100173.31;;;5.56;100.00
55070;BME280;40967;52.070;8.596;2023-12-20T06:42:41;100168.97;;;5.55;100.00
55070;BME280;40967;52.070;8.596;2023-12-20T06:45:10;100174.44;;;5.60;100.00
55070;BME280;40967;52.070;8.596;2023-12-20T06:47:39;100168.00;;;5.61;100.00
55070;BME280;40967;52.070;8.596;2023-12-20T06:50:08;100156.16;;;5.62;100.00
55070;BME280;40967;52.070;8.596;2023-12-20T06:52:34;100144.00;;;5.59;100.00
55070;BME280;40967;52.070;8.596;2023-12-20T06:55:03;100160.97;;;5.60;100.00
55070;BME280;40967;52.070;8.596;2023-12-20T06:57:31;100160.97;;;5.60;100.00
55070;BME280;40967;52.070;8.596;2023-12-20T06:59:57;100166.84;;;5.57;100.00
55070;BME280;40967;52.070;8.596;2023-12-20T07:02:32;100162.22;;;5.52;100.00
55070;BME280;40967;52.070;8.596;2023-12-20T07:04:59;100161.47;;;5.57;100.00
55070;BME280;40967;52.070;8.596;2023-12-20T07:07:28;100155.53;;;5.55;100.00
55070;BME280;40967;52.070;8.596;2023-12-20T07:10:04;100146.16;;;5.57;100.00
55070;BME280;40967;52.070;8.596;2023-12-20T07:12:34;100158.22;;;5.55;100.00
55070;BME280;40967;52.070;8.596;2023-12-20T07:15:04;100153.66;;;5.55;100.00
55070;BME280;40967;52.070;8.596;2023-12-20T07:17:32;100156.09;;;5.57;100.00
55070;BME280;40967;52.070;8.596;2023-12-20T07:19:59;100148.44;;;5.49;100.00
55070;BME280;40967;52.070;8.596;2023-12-20T07:22:30;100161.97;;;5.54;100.00
55070;BME280;40967;52.070;8.596;2023-12-20T07:24:58;100145.56;;;5.55;100.00
55070;BME280;40967;52.070;8.596;2023-12-20T07:27:26;100139.63;;;5.53;100.00
55070;BME280;40967;52.070;8.596;2023-12-20T07:29:54;100153.47;;;5.62;100.00
55070;BME280;40967;52.070;8.596;2023-12-20T07:32:20;100149.50;;;5.64;100.00
55070;BME280;40967;52.070;8.596;2023-12-20T07:34:47;100148.09;;;5.62;100.00
55070;BME280;40967;52.070;8.596;2023-12-20T07:37:14;100145.97;;;5.64;100.00
55070;BME280;40967;52.070;8.596;2023-12-20T07:39:44;100146.81;;;5.64;100.00
55070;BME280;40967;52.070;8.596;2023-12-20T07:42:11;100161.63;;;5.67;100.00
55070;BME280;40967;52.070;8.596;2023-12-20T07:44:37;100160.00;;;5.66;100.00
55070;BME280;40967;52.070;8.596;2023-12-20T07:47:04;100157.31;;;5.66;100.00
55070;BME280;40967;52.070;8.596;2023-12-20T07:49:34;100150.28;;;5.65;100.00
55070;BME280;40967;52.070;8.596;2023-12-20T07:52:01;100149.38;;;5.59;100.00
55070;BME280;40967;52.070;8.596;2023-12-20T07:54:28;100154.78;;;5.59;100.00
55070;BME280;40967;52.070;8.596;2023-12-20T07:56:57;100144.81;;;5.60;100.00
55070;BME280;40967;52.070;8.596;2023-12-20T07:59:26;100149.00;;;5.67;100.00
55070;BME280;40967;52.070;8.596;2023-12-20T08:01:53;100141.88;;;5.61;100.00
55070;BME280;40967;52.070;8.596;2023-12-20T08:04:20;100153.31;;;5.68;100.00
55070;BME280;40967;52.070;8.596;2023-12-20T08:06:47;100138.47;;;5.66;100.00
55070;BME280;40967;52.070;8.596;2023-12-20T08:09:16;100146.81;;;5.64;100.00
55070;BME280;40967;52.070;8.596;2023-12-20T08:11:45;100137.66;;;5.65;100.00
55070;BME280;40967;52.070;8.596;2023-12-20T08:14:15;100155.41;;;5.66;100.00
55070;BME280;40967;52.070;8.596;2023-12-20T08:16:44;100127.38;;;5.62;100.00
55070;BME280;40967;52.070;8.596;2023-12-20T08:19:11;100145.47;;;5.67;100.00
55070;BME280;40967;52.070;8.596;2023-12-20T08:21:38;100139.06;;;5.68;100.00
55070;BME280;40967;52.070;8.596;2023-12-20T08:24:06;100148.16;;;5.67;100.00
55070;BME280;40967;52.070;8.596;2023-12-20T08:26:33;100149.72;;;5.63;100.00
55070;BME280;40967;52.070;8.596;2023-12-20T08:29:04;100157.31;;;5.66;100.00
55070;BME280;40967;52.070;8.596;2023-12-20T08:31:32;100149.06;;;5.72;100.00
55070;BME280;40967;52.070;8.596;2023-12-20T08:33:59;100145.06;;;5.75;100.00
55070;BME280;40967;52.070;8.596;2023-12-20T08:36:26;100136.44;;;5.73;100.00
55070;BME280;40967;52.070;8.596;2023-12-20T08:38:53;100146.13;;;5.74;100.00
55070;BME280;40967;52.070;8.596;2023-12-20T08:41:20;100149.38;;;5.76;100.00
55070;BME280;40967;52.070;8.596;2023-12-20T08:43:48;100142.38;;;5.75;100.00
55070;BME280;40967;52.070;8.596;2023-12-20T08:46:18;100136.44;;;5.73;100.00
55070;BME280;40967;52.070;8.596;2023-12-20T08:48:46;100133.50;;;5.74;100.00
55070;BME280;40967;52.070;8.596;2023-12-20T08:51:15;100121.16;;;5.78;100.00
55070;BME280;40967;52.070;8.596;2023-12-20T08:53:43;100124.66;;;5.79;100.00
55070;BME280;40967;52.070;8.596;2023-12-20T08:56:10;100135.16;;;5.80;100.00
55070;BME280;40967;52.070;8.596;2023-12-20T08:58:39;100129.00;;;5.80;100.00
55070;BME280;40967;52.070;8.596;2023-12-20T09:01:06;100118.06;;;5.70;100.00
55070;BME280;40967;52.070;8.596;2023-12-20T09:03:33;100109.50;;;5.73;100.00
55070;BME280;40967;52.070;8.596;2023-12-20T09:06:02;100117.09;;;5.76;100.00
55070;BME280;40967;52.070;8.596;2023-12-20T09:08:29;100116.00;;;5.77;100.00
55070;BME280;40967;52.070;8.596;2023-12-20T09:10:55;100109.25;;;5.74;100.00
55070;BME280;40967;52.070;8.596;2023-12-20T09:13:26;100115.53;;;5.80;100.00
55070;BME280;40967;52.070;8.596;2023-12-20T09:15:55;100097.41;;;5.75;100.00
55070;BME280;40967;52.070;8.596;2023-12-20T09:18:23;100098.81;;;5.78;100.00
55070;BME280;40967;52.070;8.596;2023-12-20T09:20:53;100110.16;;;5.80;100.00
55070;BME280;40967;52.070;8.596;2023-12-20T09:23:21;100088.03;;;5.78;100.00
55070;BME280;40967;52.070;8.596;2023-12-20T09:25:48;100090.22;;;5.81;100.00
55070;BME280;40967;52.070;8.596;2023-12-20T09:28:15;100089.66;;;5.79;100.00
55070;BME280;40967;52.070;8.596;2023-12-20T09:30:42;100086.72;;;5.80;100.00
55070;BME280;40967;52.070;8.596;2023-12-20T09:33:12;100083.78;;;5.82;100.00
55070;BME280;40967;52.070;8.596;2023-12-20T09:35:42;100086.03;;;5.85;100.00
55070;BME280;40967;52.070;8.596;2023-12-20T09:38:09;100066.34;;;5.85;100.00
55070;BME280;40967;52.070;8.596;2023-12-20T09:40:41;100067.50;;;5.89;100.00
55070;BME280;40967;52.070;8.596;2023-12-20T09:43:11;100051.47;;;5.82;100.00
55070;BME280;40967;52.070;8.596;2023-12-20T09:45:46;100060.78;;;5.91;100.00
55070;BME280;40967;52.070;8.596;2023-12-20T09:48:13;100062.91;;;5.89;100.00
55070;BME280;40967;52.070;8.596;2023-12-20T09:50:46;100048.13;;;5.92;100.00
55070;BME280;40967;52.070;8.596;2023-12-20T09:53:18;100048.91;;;5.87;100.00
55070;BME280;40967;52.070;8.596;2023-12-20T09:55:47;100057.34;;;5.96;100.00
55070;BME280;40967;52.070;8.596;2023-12-20T09:58:15;100061.66;;;5.97;100.00
55070;BME280;40967;52.070;8.596;2023-12-20T10:00:47;100057.66;;;5.99;100.00
55070;BME280;40967;52.070;8.596;2023-12-20T10:03:18;100068.75;;;6.03;100.00
55070;BME280;40967;52.070;8.596;2023-12-20T10:05:52;100059.72;;;5.92;100.00
55070;BME280;40967;52.070;8.596;2023-12-20T10:08:24;100066.00;;;5.98;100.00
55070;BME280;40967;52.070;8.596;2023-12-20T10:10:52;100064.97;;;6.04;100.00
55070;BME280;40967;52.070;8.596;2023-12-20T10:13:19;100067.41;;;6.05;100.00
55070;BME280;40967;52.070;8.596;2023-12-20T10:15:46;100054.47;;;6.02;100.00
55070;BME280;40967;52.070;8.596;2023-12-20T10:18:13;100059.59;;;6.04;100.00
55070;BME280;40967;52.070;8.596;2023-12-20T10:20:43;100042.63;;;6.03;100.00
55070;BME280;40967;52.070;8.596;2023-12-20T10:23:11;100048.38;;;6.12;100.00
55070;BME280;40967;52.070;8.596;2023-12-20T10:25:39;100055.66;;;6.11;100.00
55070;BME280;40967;52.070;8.596;2023-12-20T10:28:12;100038.41;;;6.12;100.00
55070;BME280;40967;52.070;8.596;2023-12-20T10:30:41;100045.25;;;6.20;100.00
55070;BME280;40967;52.070;8.596;2023-12-20T10:33:09;100047.69;;;6.21;100.00
55070;BME280;40967;52.070;8.596;2023-12-20T10:35:37;100046.06;;;6.20;100.00
55070;BME280;40967;52.070;8.596;2023-12-20T10:38:05;100040.13;;;6.18;100.00
55070;BME280;40967;52.070;8.596;2023-12-20T10:40:34;100045.44;;;6.13;100.00
55070;BME280;40967;52.070;8.596;2023-12-20T10:43:04;100051.16;;;6.17;100.00
55070;BME280;40967;52.070;8.596;2023-12-20T10:45:35;100045.19;;;6.15;100.00
55070;BME280;40967;52.070;8.596;2023-12-20T10:48:02;100022.31;;;6.17;100.00
55070;BME280;40967;52.070;8.596;2023-12-20T10:50:38;100046.50;;;6.12;100.00
55070;BME280;40967;52.070;8.596;2023-12-20T10:53:08;100044.06;;;6.11;100.00
55070;BME280;40967;52.070;8.596;2023-12-20T10:55:40;100045.56;;;6.02;100.00
55070;BME280;40967;52.070;8.596;2023-12-20T10:58:08;100032.91;;;6.02;100.00
55070;BME280;40967;52.070;8.596;2023-12-20T11:00:39;100049.66;;;6.04;100.00
55070;BME280;40967;52.070;8.596;2023-12-20T11:03:10;100040.22;;;6.07;100.00
55070;BME280;40967;52.070;8.596;2023-12-20T11:05:43;100025.16;;;6.06;100.00
55070;BME280;40967;52.070;8.596;2023-12-20T11:08:17;100024.91;;;6.07;100.00
55070;BME280;40967;52.070;8.596;2023-12-20T11:10:53;100019.97;;;5.99;100.00
55070;BME280;40967;52.070;8.596;2023-12-20T11:13:28;100029.19;;;6.08;100.00
55070;BME280;40967;52.070;8.596;2023-12-20T11:16:00;100033.50;;;6.04;100.00
55070;BME280;40967;52.070;8.596;2023-12-20T11:18:29;100039.50;;;6.11;100.00
55070;BME280;40967;52.070;8.596;2023-12-20T11:21:00;100030.53;;;6.06;100.00
55070;BME280;40967;52.070;8.596;2023-12-20T11:23:30;100035.34;;;6.04;100.00
55070;BME280;40967;52.070;8.596;2023-12-20T11:25:58;100029.19;;;6.08;100.00
55070;BME280;40967;52.070;8.596;2023-12-20T11:28:26;100030.91;;;6.14;100.00
55070;BME280;40967;52.070;8.596;2023-12-20T11:30:57;100009.63;;;6.13;100.00
55070;BME280;40967;52.070;8.596;2023-12-20T11:33:29;100011.84;;;6.21;100.00
55070;BME280;40967;52.070;8.596;2023-12-20T11:35:57;100009.97;;;6.21;100.00
55070;BME280;40967;52.070;8.596;2023-12-20T11:38:25;100013.19;;;6.18;100.00
55070;BME280;40967;52.070;8.596;2023-12-20T11:40:55;100006.72;;;6.19;100.00
55070;BME280;40967;52.070;8.596;2023-12-20T11:43:34;100007.78;;;6.18;100.00
55070;BME280;40967;52.070;8.596;2023-12-20T11:46:04;100009.09;;;6.16;100.00
55070;BME280;40967;52.070;8.596;2023-12-20T11:48:37;100019.13;;;6.20;100.00
55070;BME280;40967;52.070;8.596;2023-12-20T11:51:09;100000.50;;;6.19;100.00
55070;BME280;40967;52.070;8.596;2023-12-20T11:53:37;99989.69;;;6.14;100.00
55070;BME280;40967;52.070;8.596;2023-12-20T11:56:04;99980.84;;;6.18;100.00
55070;BME280;40967;52.070;8.596;2023-12-20T11:58:32;99991.16;;;6.26;100.00
55070;BME280;40967;52.070;8.596;2023-12-20T12:01:06;99985.22;;;6.24;100.00
55070;BME280;40967;52.070;8.596;2023-12-20T12:03:35;99975.25;;;6.25;100.00
55070;BME280;40967;52.070;8.596;2023-12-20T12:06:05;99982.00;;;6.27;100.00
55070;BME280;40967;52.070;8.596;2023-12-20T12:08:33;99971.53;;;6.31;100.00
55070;BME280;40967;52.070;8.596;2023-12-20T12:11:00;99970.78;;;6.35;100.00
55070;BME280;40967;52.070;8.596;2023-12-20T12:13:30;99987.47;;;6.32;100.00
55070;BME280;40967;52.070;8.596;2023-12-20T12:15:59;99973.44;;;6.30;100.00
55070;BME280;40967;52.070;8.596;2023-12-20T12:18:26;99956.41;;;6.25;100.00
55070;BME280;40967;52.070;8.596;2023-12-20T12:21:01;99989.13;;;6.38;100.00
55070;BME280;40967;52.070;8.596;2023-12-20T12:23:29;99982.38;;;6.36;100.00
55070;BME280;40967;52.070;8.596;2023-12-20T12:25:59;99987.53;;;6.37;100.00
55070;BME280;40967;52.070;8.596;2023-12-20T12:28:40;99976.22;;;6.40;100.00
55070;BME280;40967;52.070;8.596;2023-12-20T12:31:08;99977.09;;;6.46;100.00
55070;BME280;40967;52.070;8.596;2023-12-20T12:33:35;99978.44;;;6.48;100.00
55070;BME280;40967;52.070;8.596;2023-12-20T12:36:08;99963.34;;;6.47;100.00
55070;BME280;40967;52.070;8.596;2023-12-20T12:38:35;99963.13;;;6.54;100.00
55070;BME280;40967;52.070;8.596;2023-12-20T12:41:02;99958.88;;;6.58;100.00
55070;BME280;40967;52.070;8.596;2023-12-20T12:43:29;99964.28;;;6.63;100.00
55070;BME280;40967;52.070;8.596;2023-12-20T12:45:56;99965.41;;;6.67;100.00
55070;BME280;40967;52.070;8.596;2023-12-20T12:48:23;99963.72;;;6.61;100.00
55070;BME280;40967;52.070;8.596;2023-12-20T12:50:53;99966.44;;;6.61;100.00
55070;BME280;40967;52.070;8.596;2023-12-20T12:53:25;99988.78;;;6.56;100.00
55070;BME280;40967;52.070;8.596;2023-12-20T12:55:55;99983.38;;;6.56;100.00
55070;BME280;40967;52.070;8.596;2023-12-20T12:58:22;99981.97;;;6.49;100.00
55070;BME280;40967;52.070;8.596;2023-12-20T13:00:50;99993.25;;;6.46;100.00